Time;durP1;ratioP1;P1;durP2;ratioP2;P2;SDS_P1;SDS_P2;PMS_P1;PMS_P2;Temp;Humidity;BMP_temperature;BMP_pressure;BME280_temperature;BME280_humidity;BME280_pressure;Samples;Min_cycle;Max_cycle;Signal;HPM_P1;HPM_P2
2022/01/12 00:02:20;;;;;;;33.75;10.80;;;;;;;-1.34;100.00;103226.72;5025273;28;20124;-76
2022/01/12 00:04:46;;;;;;;27.52;10.48;;;;;;;-1.32;100.00;103234.59;5033111;28;20039;-77
2022/01/12 00:07:12;;;;;;;29.85;11.25;;;;;;;-1.28;100.00;103235.38;5003266;28;20033;-77
2022/01/12 00:09:38;;;;;;;37.15;12.15;;;;;;;-1.38;100.00;103247.94;5034376;28;20056;-77
2022/01/12 00:12:04;;;;;;;33.67;12.77;;;;;;;-1.45;100.00;103251.66;5009360;28;20379;-77
2022/01/12 00:14:30;;;;;;;26.52;10.07;;;;;;;-1.50;100.00;103245.59;5036750;28;20110;-77
2022/01/12 00:16:59;;;;;;;30.35;10.70;;;;;;;-1.60;100.00;103245.81;5014543;28;20498;-78
2022/01/12 00:19:29;;;;;;;22.65;8.70;;;;;;;-1.66;100.00;103256.50;5020070;28;20071;-76
2022/01/12 00:21:56;;;;;;;27.90;11.18;;;;;;;-1.66;100.00;103245.97;5006176;28;20044;-76
2022/01/12 00:24:25;;;;;;;25.17;10.20;;;;;;;-1.63;100.00;103252.94;5024556;28;20075;-76
2022/01/12 00:35:18;;;;;;;31.10;8.35;;;;;;;-1.66;100.00;103258.28;5036798;28;20052;-78
2022/01/12 00:37:44;;;;;;;31.33;9.88;;;;;;;-1.46;100.00;103261.31;5009459;28;20029;-77
2022/01/12 00:40:10;;;;;;;25.00;8.68;;;;;;;-1.38;100.00;103254.06;5022216;28;20045;-77
2022/01/12 00:42:35;;;;;;;25.05;9.90;;;;;;;-1.29;100.00;103257.41;5041282;28;20177;-77
2022/01/12 00:45:04;;;;;;;22.45;10.30;;;;;;;-1.27;100.00;103256.47;5039803;28;20467;-78
2022/01/12 00:47:29;;;;;;;25.10;9.57;;;;;;;-1.31;100.00;103253.94;5040369;28;20045;-77
2022/01/12 00:49:55;;;;;;;22.50;9.75;;;;;;;-1.31;100.00;103261.88;5022381;28;20039;-77
2022/01/12 00:52:21;;;;;;;24.45;8.73;;;;;;;-1.30;100.00;103260.94;5041591;28;20037;-77
2022/01/12 00:54:49;;;;;;;30.45;10.55;;;;;;;-1.30;100.00;103263.59;5046706;28;20486;-77
2022/01/12 00:57:17;;;;;;;28.33;9.93;;;;;;;-1.30;100.00;103267.09;5012078;28;20040;-77
2022/01/12 00:59:43;;;;;;;25.27;9.27;;;;;;;-1.31;100.00;103273.28;5003533;28;20033;-77
2022/01/12 01:02:11;;;;;;;29.08;10.50;;;;;;;-1.44;100.00;103256.88;5024513;28;20460;-77
2022/01/12 01:04:42;;;;;;;27.58;11.57;;;;;;;-1.42;100.00;103262.97;5039176;28;20711;-77
2022/01/12 01:07:08;;;;;;;28.65;10.77;;;;;;;-1.37;100.00;103273.44;5033216;28;20481;-76
2022/01/12 01:09:37;;;;;;;33.55;10.80;;;;;;;-1.37;100.00;103284.00;5038317;28;20534;-76
2022/01/12 01:12:03;;;;;;;27.88;9.48;;;;;;;-1.43;100.00;103274.47;5020001;28;20059;-76
2022/01/12 01:25:52;;;;;;;20.48;7.45;;;;;;;-1.61;100.00;103281.03;5023149;28;20041;-76
2022/01/12 01:28:18;;;;;;;23.20;8.35;;;;;;;-1.61;100.00;103280.16;5038669;28;20099;-76
2022/01/12 01:30:45;;;;;;;28.48;10.15;;;;;;;-1.58;100.00;103280.09;5036910;28;20064;-77
2022/01/12 01:33:15;;;;;;;19.48;8.10;;;;;;;-1.59;100.00;103284.50;5022189;28;20041;-77
2022/01/12 01:35:52;;;;;;;24.08;8.10;;;;;;;-1.58;100.00;103282.72;5020638;28;20044;-78
2022/01/12 01:38:20;;;;;;;4.10;3.25;;;;;;;-1.52;100.00;103287.00;5020364;28;20842;-77
2022/01/12 01:40:46;;;;;;;11.90;4.78;;;;;;;-1.41;100.00;103285.81;5034870;28;20944;-76
2022/01/12 01:43:22;;;;;;;23.58;9.52;;;;;;;-1.27;100.00;103280.22;5037992;28;20117;-76
2022/01/12 01:54:04;;;;;;;33.67;12.30;;;;;;;-1.55;100.00;103296.69;5037779;28;20747;-76
2022/01/12 01:56:30;;;;;;;16.02;5.18;;;;;;;-1.50;100.00;103298.38;5040937;28;20116;-76
2022/01/12 01:58:57;;;;;;;26.33;9.77;;;;;;;-1.44;100.00;103312.28;5028560;28;20516;-76
2022/01/12 02:01:23;;;;;;;45.40;13.73;;;;;;;-1.51;100.00;103292.22;5038384;28;20116;-76
2022/01/12 02:03:49;;;;;;;36.72;11.93;;;;;;;-1.35;100.00;103309.44;5023787;28;20040;-77
2022/01/12 02:06:17;;;;;;;43.80;14.30;;;;;;;-1.24;100.00;103310.97;5042252;28;20110;-76
2022/01/12 02:08:45;;;;;;;32.03;11.90;;;;;;;-1.24;100.00;103306.56;5022491;28;20833;-77
2022/01/12 02:11:11;;;;;;;25.27;9.85;;;;;;;-1.25;100.00;103317.13;5039313;28;20037;-77
2022/01/12 02:13:39;;;;;;;27.08;9.65;;;;;;;-1.40;100.00;103299.91;5035185;28;20047;-77
2022/01/12 02:16:09;;;;;;;24.35;10.15;;;;;;;-1.35;100.00;103314.72;5024115;28;20044;-76
2022/01/12 02:19:43;;;;;;;22.70;8.88;;;;;;;-1.35;100.00;103324.38;5022663;28;20411;-77
2022/01/12 02:40:36;;;;;;;20.75;6.35;;;;;;;-1.28;100.00;103348.88;5032595;28;20183;-77
2022/01/12 02:53:38;;;;;;;11.88;5.45;;;;;;;-1.57;100.00;103353.91;5032974;28;20041;-76
2022/01/12 02:53:53;;;;;;;22.15;5.88;;;;;;;-1.60;100.00;103358.41;5011768;28;20463;-77
2022/01/12 02:56:24;;;;;;;16.65;6.40;;;;;;;-1.59;100.00;103375.94;5036373;28;21518;-76
2022/01/12 02:58:51;;;;;;;14.45;6.35;;;;;;;-1.62;100.00;103361.06;5021826;28;20064;-77
2022/01/12 03:03:55;;;;;;;17.23;5.63;;;;;;;-1.56;100.00;103368.84;5018201;28;20056;-77
2022/01/12 03:06:25;;;;;;;17.38;7.65;;;;;;;-1.56;100.00;103368.00;5031728;28;20556;-77
2022/01/12 03:08:51;;;;;;;15.25;5.55;;;;;;;-1.49;100.00;103366.94;5024721;28;20076;-77
2022/01/12 03:11:18;;;;;;;13.15;5.38;;;;;;;-1.37;100.00;103365.81;5017721;28;20360;-77
2022/01/12 03:13:44;;;;;;;14.80;5.82;;;;;;;-1.37;100.00;103360.53;5038933;28;20040;-76
2022/01/12 03:16:15;;;;;;;14.90;5.63;;;;;;;-1.43;100.00;103360.66;5020681;28;20037;-77
2022/01/12 03:18:46;;;;;;;16.27;5.93;;;;;;;-1.56;100.00;103362.72;5005177;28;20057;-77
2022/01/12 03:21:13;;;;;;;15.73;5.88;;;;;;;-1.69;100.00;103359.47;4998157;28;20045;-77
2022/01/12 03:23:42;;;;;;;20.50;6.78;;;;;;;-1.73;100.00;103365.69;5016028;28;20044;-77
2022/01/12 03:26:09;;;;;;;17.50;5.70;;;;;;;-1.76;100.00;103360.50;5017544;28;20036;-77
2022/01/12 03:28:37;;;;;;;12.65;5.03;;;;;;;-1.77;100.00;103364.91;5030468;28;20051;-76
2022/01/12 03:38:56;;;;;;;12.68;5.95;;;;;;;-1.82;100.00;103353.56;5039364;28;20604;-76
2022/01/12 03:41:23;;;;;;;14.73;6.35;;;;;;;-1.70;100.00;103367.41;5038276;28;20446;-77
2022/01/12 03:43:49;;;;;;;15.18;6.03;;;;;;;-1.73;100.00;103372.75;5005747;28;20041;-77
2022/01/12 03:46:16;;;;;;;9.45;4.65;;;;;;;-1.74;100.00;103377.16;5038419;28;20044;-77
2022/01/12 03:48:42;;;;;;;16.85;6.30;;;;;;;-1.76;100.00;103381.59;5034066;28;20032;-76
2022/01/12 03:51:08;;;;;;;16.27;6.43;;;;;;;-1.80;100.00;103367.63;5033321;28;20083;-77
2022/01/12 03:53:34;;;;;;;11.93;5.60;;;;;;;-1.68;100.00;103376.16;5017607;28;20064;-77
2022/01/12 03:56:02;;;;;;;2.78;2.47;;;;;;;-1.66;100.00;103374.38;5037525;28;20460;-76
2022/01/12 03:58:28;;;;;;;8.73;4.93;;;;;;;-1.60;100.00;103371.59;5020128;28;20043;-76
2022/01/12 04:00:54;;;;;;;6.72;3.65;;;;;;;-1.57;100.00;103374.16;5003221;28;20037;-77
2022/01/12 04:03:20;;;;;;;24.55;6.32;;;;;;;-1.60;100.00;103379.50;5008870;28;20043;-77
2022/01/12 04:08:23;;;;;;;18.77;7.38;;;;;;;-1.66;100.00;103369.09;5041535;28;20502;-77
2022/01/12 04:10:52;;;;;;;18.80;6.80;;;;;;;-1.58;100.00;103381.22;5041169;28;20041;-77
2022/01/12 04:13:19;;;;;;;8.57;4.93;;;;;;;-1.61;100.00;103375.13;5041777;28;20427;-77
2022/01/12 04:15:48;;;;;;;14.68;5.03;;;;;;;-1.59;100.00;103386.50;5028111;28;20033;-77
2022/01/12 04:18:13;;;;;;;11.43;5.00;;;;;;;-1.70;100.00;103384.09;5011368;28;20586;-77
2022/01/12 04:20:51;;;;;;;19.77;5.65;;;;;;;-1.72;100.00;103388.56;5026458;28;20112;-76
2022/01/12 04:23:22;;;;;;;12.52;5.50;;;;;;;-1.81;100.00;103380.81;5010799;28;20063;-77
2022/01/12 04:25:50;;;;;;;19.40;6.20;;;;;;;-1.84;100.00;103375.59;5045965;28;20033;-78
2022/01/12 04:28:17;;;;;;;12.18;5.18;;;;;;;-1.90;100.00;103379.25;5045427;28;20079;-77
2022/01/12 04:30:44;;;;;;;13.43;5.72;;;;;;;-1.89;100.00;103378.34;5028402;28;20059;-78
2022/01/12 04:33:10;;;;;;;18.38;5.78;;;;;;;-2.00;100.00;103367.13;5047884;28;20051;-77
2022/01/12 04:35:40;;;;;;;16.88;5.57;;;;;;;-1.90;100.00;103381.00;5054177;28;20044;-77
2022/01/12 04:38:08;;;;;;;17.08;5.72;;;;;;;-1.95;100.00;103375.81;5033255;28;20506;-77
2022/01/12 04:40:34;;;;;;;18.38;6.85;;;;;;;-1.93;100.00;103397.75;5055036;28;20364;-77
2022/01/12 04:43:00;;;;;;;17.63;5.78;;;;;;;-2.02;100.00;103388.25;5044492;28;20033;-78
2022/01/12 04:50:26;;;;;;;8.45;4.28;;;;;;;-2.12;100.00;103399.00;5033366;28;20040;-76
2022/01/12 04:52:52;;;;;;;16.70;6.30;;;;;;;-2.19;100.00;103402.66;5020717;28;20029;-78
2022/01/12 04:55:21;;;;;;;13.85;5.25;;;;;;;-2.38;100.00;103373.13;5041826;28;20128;-77
2022/01/12 04:57:46;;;;;;;14.25;5.32;;;;;;;-2.22;100.00;103391.28;5012427;28;20125;-77
2022/01/12 05:00:16;;;;;;;14.60;5.07;;;;;;;-2.17;100.00;103390.31;5038517;28;20567;-77
2022/01/12 05:13:41;;;;;;;9.57;5.60;;;;;;;-1.98;100.00;103386.44;5043176;28;20192;-77
2022/01/12 05:16:10;;;;;;;15.75;5.45;;;;;;;-1.96;100.00;103396.94;5040999;28;20131;-77
2022/01/12 05:18:38;;;;;;;16.02;6.43;;;;;;;-2.15;100.00;103376.19;5035136;28;20029;-76
2022/01/12 05:21:06;;;;;;;15.88;6.28;;;;;;;-2.08;100.00;103387.50;5024570;28;20041;-77
2022/01/12 05:23:32;;;;;;;14.15;5.15;;;;;;;-2.03;100.00;103390.94;5039981;28;20130;-78
2022/01/12 05:25:58;;;;;;;15.93;5.28;;;;;;;-2.17;100.00;103372.75;5022434;28;20168;-77
2022/01/12 05:28:27;;;;;;;14.60;5.35;;;;;;;-2.12;100.00;103378.78;5004232;28;20036;-77
2022/01/12 05:30:56;;;;;;;12.15;5.07;;;;;;;-1.96;100.00;103408.34;5024846;28;20041;-77
2022/01/12 05:33:24;;;;;;;9.23;4.15;;;;;;;-2.00;100.00;103397.00;5029148;28;20037;-77
2022/01/12 05:35:54;;;;;;;12.95;5.35;;;;;;;-1.83;100.00;103415.13;5042259;28;20032;-77
2022/01/12 05:38:20;;;;;;;12.70;6.53;;;;;;;-1.71;100.00;103414.03;5037683;28;20041;-78
2022/01/12 05:40:49;;;;;;;12.52;5.88;;;;;;;-1.66;100.00;103409.53;5035719;28;20549;-76
2022/01/12 05:43:24;;;;;;;13.73;5.57;;;;;;;-1.63;100.00;103413.88;5022288;28;20033;-76
2022/01/12 05:45:51;;;;;;;17.90;5.28;;;;;;;-1.63;100.00;103416.50;5034762;28;20136;-78
2022/01/12 05:50:42;;;;;;;14.35;5.88;;;;;;;-1.55;100.00;103418.06;5034245;28;20387;-77
2022/01/12 05:53:09;;;;;;;13.98;5.90;;;;;;;-1.50;100.00;103420.63;5002421;28;20470;-77
2022/01/12 05:55:34;;;;;;;11.63;5.32;;;;;;;-1.47;100.00;103431.09;5017300;28;20048;-76
2022/01/12 05:58:00;;;;;;;11.85;5.28;;;;;;;-1.47;100.00;103427.59;5043612;28;20490;-76
2022/01/12 06:00:28;;;;;;;10.93;4.65;;;;;;;-1.49;100.00;103430.28;5025915;28;20483;-77
2022/01/12 06:02:54;;;;;;;16.63;6.47;;;;;;;-1.54;100.00;103426.84;5029750;28;20045;-76
2022/01/12 06:05:21;;;;;;;15.35;7.30;;;;;;;-1.56;100.00;103423.41;5019004;28;20091;-76
2022/01/12 06:07:50;;;;;;;20.73;7.10;;;;;;;-1.37;100.00;103440.56;5035542;28;20052;-76
2022/01/12 06:10:16;;;;;;;10.80;6.40;;;;;;;-1.31;100.00;103436.94;5020792;28;20048;-78
2022/01/12 06:12:42;;;;;;;17.90;6.00;;;;;;;-1.23;100.00;103444.69;5022252;28;20074;-77
2022/01/12 06:15:08;;;;;;;7.63;4.10;;;;;;;-1.21;100.00;103450.81;5024683;28;20051;-76
2022/01/12 06:17:35;;;;;;;7.65;4.25;;;;;;;-1.23;100.00;103450.81;5037302;28;20464;-77
2022/01/12 06:20:02;;;;;;;9.68;4.78;;;;;;;-1.34;100.00;103443.16;5049532;28;20546;-77
2022/01/12 06:22:28;;;;;;;9.13;4.55;;;;;;;-1.29;100.00;103455.38;5001663;28;21407;-77
2022/01/12 06:24:55;;;;;;;11.00;5.10;;;;;;;-1.41;100.00;103444.16;5032562;28;20094;-76
2022/01/12 06:27:22;;;;;;;9.93;4.32;;;;;;;-1.34;100.00;103464.25;5000848;28;20398;-77
2022/01/12 06:30:01;;;;;;;13.02;4.53;;;;;;;-1.31;100.00;103471.25;5037850;28;20037;-77
2022/01/12 06:32:27;;;;;;;14.80;4.25;;;;;;;-1.37;100.00;103460.81;5000827;28;20540;-77
2022/01/12 06:34:53;;;;;;;17.50;5.80;;;;;;;-1.31;100.00;103473.03;5023538;28;20032;-77
2022/01/12 06:37:19;;;;;;;11.80;5.30;;;;;;;-1.22;100.00;103472.81;5004734;28;20044;-77
2022/01/12 06:39:44;;;;;;;12.13;5.45;;;;;;;-1.17;100.00;103477.09;5027635;28;20086;-76
2022/01/12 06:42:10;;;;;;;14.02;5.47;;;;;;;-1.13;100.00;103486.69;5045241;28;20111;-77
2022/01/12 06:44:36;;;;;;;15.43;5.38;;;;;;;-1.11;100.00;103484.03;5024942;28;20040;-77
2022/01/12 06:47:02;;;;;;;5.47;2.13;;;;;;;-1.05;100.00;103489.16;5052580;28;20475;-76
2022/01/12 06:49:30;;;;;;;14.55;4.32;;;;;;;-1.07;100.00;103476.91;5036501;28;20198;-76
2022/01/12 06:51:56;;;;;;;15.23;4.65;;;;;;;-0.97;100.00;103487.22;5039382;28;20040;-76
2022/01/12 06:54:22;;;;;;;17.35;5.63;;;;;;;-0.99;100.00;103478.47;5025886;28;20028;-76
2022/01/12 06:56:47;;;;;;;16.02;4.35;;;;;;;-0.95;100.00;103490.72;5047374;28;20060;-77
2022/01/12 06:59:13;;;;;;;11.95;5.40;;;;;;;-0.98;100.00;103493.44;5015119;28;20040;-77
2022/01/12 07:01:39;;;;;;;10.55;4.00;;;;;;;-1.03;100.00;103492.66;5025725;28;20387;-77
2022/01/12 07:04:04;;;;;;;11.27;5.28;;;;;;;-1.09;100.00;103497.19;5051505;28;20041;-76
2022/01/12 07:06:30;;;;;;;12.85;5.03;;;;;;;-1.11;100.00;103502.53;5025116;28;20064;-77
2022/01/12 07:08:56;;;;;;;12.63;5.72;;;;;;;-1.14;100.00;103499.91;5041867;28;20056;-77
2022/01/12 07:11:22;;;;;;;11.75;4.50;;;;;;;-1.30;100.00;103466.81;5023435;28;20041;-77
2022/01/12 07:13:47;;;;;;;11.88;4.47;;;;;;;-1.17;100.00;103500.84;5046295;28;20033;-77
2022/01/12 07:16:13;;;;;;;9.80;3.75;;;;;;;-1.15;100.00;103509.63;5019340;28;20041;-77
2022/01/12 07:18:39;;;;;;;9.20;4.57;;;;;;;-1.23;100.00;103492.22;5027380;28;20317;-77
2022/01/12 07:21:05;;;;;;;9.23;3.10;;;;;;;-1.15;100.00;103509.63;5021105;28;20032;-77
2022/01/12 07:23:30;;;;;;;9.30;4.75;;;;;;;-1.13;100.00;103506.97;5045814;28;20410;-77
2022/01/12 07:25:56;;;;;;;11.20;4.43;;;;;;;-1.11;100.00;103505.16;5025848;28;20099;-77
2022/01/12 07:28:22;;;;;;;12.52;3.90;;;;;;;-1.08;100.00;103514.78;5045500;28;20127;-77
2022/01/12 07:30:49;;;;;;;17.20;4.85;;;;;;;-1.07;100.00;103509.44;5029246;28;20049;-77
2022/01/12 07:33:15;;;;;;;7.97;3.10;;;;;;;-1.01;100.00;103514.59;5029031;28;20040;-76
2022/01/12 07:35:42;;;;;;;11.93;5.03;;;;;;;-0.98;100.00;103517.19;5019276;28;20055;-76
2022/01/12 07:38:08;;;;;;;7.93;3.78;;;;;;;-0.93;100.00;103525.91;5045859;28;20033;-77
2022/01/12 07:40:35;;;;;;;7.63;3.63;;;;;;;-0.95;100.00;103527.69;5036220;28;20090;-76
2022/01/12 07:43:06;;;;;;;14.88;5.05;;;;;;;-0.96;100.00;103525.94;5014230;28;20052;-77
2022/01/12 07:45:34;;;;;;;10.88;4.07;;;;;;;-0.95;100.00;103527.69;5026176;28;20026;-77
2022/01/12 07:48:00;;;;;;;16.80;4.18;;;;;;;-1.01;100.00;103525.16;5019438;28;20485;-76
2022/01/12 07:50:26;;;;;;;12.05;4.38;;;;;;;-1.08;100.00;103520.94;5043815;28;20029;-76
2022/01/12 07:52:53;;;;;;;9.93;4.68;;;;;;;-1.01;100.00;103548.06;5018667;28;20475;-77
2022/01/12 07:55:23;;;;;;;10.80;3.50;;;;;;;-1.09;100.00;103542.94;5049966;28;20447;-76
2022/01/12 07:57:50;;;;;;;9.38;3.97;;;;;;;-1.06;100.00;103550.78;5038090;28;20078;-77
2022/01/12 08:00:18;;;;;;;4.93;2.70;;;;;;;-1.09;100.00;103563.19;5045608;28;20025;-78
2022/01/12 08:02:43;;;;;;;4.72;1.83;;;;;;;-1.14;100.00;103548.34;5027126;28;20509;-77
2022/01/12 08:05:10;;;;;;;8.75;3.60;;;;;;;-1.12;100.00;103546.50;5042577;28;20119;-76
2022/01/12 08:07:38;;;;;;;10.40;4.35;;;;;;;-1.11;100.00;103564.13;5026049;28;20048;-77
2022/01/12 08:10:08;;;;;;;15.63;4.07;;;;;;;-1.15;100.00;103556.28;5026506;28;20040;-77
2022/01/12 08:12:35;;;;;;;15.93;5.00;;;;;;;-1.14;100.00;103555.38;5042119;28;20037;-76
2022/01/12 08:15:01;;;;;;;11.93;3.88;;;;;;;-1.15;100.00;103564.19;5048694;28;20025;-76
2022/01/12 08:17:26;;;;;;;10.35;3.53;;;;;;;-1.21;100.00;103553.78;5045121;28;21015;-77
2022/01/12 08:19:57;;;;;;;10.35;3.50;;;;;;;-1.20;100.00;103560.78;5033664;28;20530;-76
2022/01/12 08:22:23;;;;;;;14.63;4.40;;;;;;;-1.17;100.00;103571.28;5046567;28;20037;-76
2022/01/12 08:24:48;;;;;;;15.13;4.20;;;;;;;-1.19;100.00;103570.44;5009367;28;20041;-77
2022/01/12 08:27:17;;;;;;;11.43;4.65;;;;;;;-1.23;100.00;103566.13;5046189;28;20044;-76
2022/01/12 08:29:45;;;;;;;5.65;2.42;;;;;;;-1.24;100.00;103565.25;5045681;28;20108;-78
2022/01/12 08:32:11;;;;;;;17.05;3.90;;;;;;;-1.30;100.00;103561.84;5012069;28;20037;-77
2022/01/12 08:34:37;;;;;;;12.02;3.88;;;;;;;-1.32;100.00;103575.09;5053177;28;20061;-76
2022/01/12 08:37:03;;;;;;;6.35;2.90;;;;;;;-1.39;100.00;103558.50;5030945;28;20475;-77
2022/01/12 08:39:29;;;;;;;4.95;2.47;;;;;;;-1.32;100.00;103580.38;5047856;28;20069;-77
2022/01/12 08:41:58;;;;;;;11.98;3.55;;;;;;;-1.30;100.00;103593.53;5049254;28;20064;-76
2022/01/12 08:44:23;;;;;;;11.38;3.70;;;;;;;-1.34;100.00;103572.47;5044711;28;21827;-77
2022/01/12 08:46:49;;;;;;;11.25;3.47;;;;;;;-1.18;100.00;103591.53;5028405;28;20059;-77
2022/01/12 08:49:20;;;;;;;8.73;3.38;;;;;;;-1.20;100.00;103593.31;5012860;28;20040;-77
2022/01/12 08:51:45;;;;;;;6.70;3.40;;;;;;;-1.23;100.00;103595.16;5015401;28;20047;-76
2022/01/12 08:54:13;;;;;;;10.18;3.00;;;;;;;-1.25;100.00;103583.75;5013477;28;20037;-77
2022/01/12 08:56:39;;;;;;;8.00;3.20;;;;;;;-1.26;100.00;103589.94;5045749;28;20032;-77
2022/01/12 08:59:04;;;;;;;8.10;3.08;;;;;;;-1.17;100.00;103576.56;5018387;28;20609;-77
2022/01/12 09:01:30;;;;;;;11.18;3.80;;;;;;;-1.00;100.00;103581.50;5033010;28;20031;-78
2022/01/12 09:03:56;;;;;;;12.40;3.30;;;;;;;-0.96;100.00;103584.03;5009994;28;20041;-77
2022/01/12 09:06:21;;;;;;;8.77;2.88;;;;;;;-0.90;100.00;103583.94;5042557;28;20031;-77
2022/01/12 09:08:49;;;;;;;8.60;3.88;;;;;;;-0.93;100.00;103578.72;5025267;28;20490;-77
2022/01/12 09:11:18;;;;;;;6.68;3.33;;;;;;;-1.04;100.00;103572.75;5034638;28;20090;-77
2022/01/12 09:13:46;;;;;;;8.52;3.88;;;;;;;-0.94;100.00;103568.16;5035530;28;20052;-78
2022/01/12 09:16:15;;;;;;;10.35;3.55;;;;;;;-0.79;100.00;103582.84;5024670;28;20519;-77
2022/01/12 09:18:43;;;;;;;8.90;3.83;;;;;;;-0.74;100.00;103576.56;5014520;28;20091;-77
2022/01/12 09:21:09;;;;;;;14.52;3.40;;;;;;;-0.65;100.00;103582.53;5031324;28;20029;-77
2022/01/12 09:23:35;;;;;;;11.18;4.53;;;;;;;-0.65;100.00;103572.81;5013752;28;20037;-77
2022/01/12 09:26:02;;;;;;;12.65;4.88;;;;;;;-0.69;100.00;103565.84;5046108;28;20179;-77
2022/01/12 09:28:28;;;;;;;10.63;3.53;;;;;;;-0.49;100.00;103595.34;5045820;28;20040;-77
2022/01/12 09:30:54;;;;;;;6.47;2.88;;;;;;;-0.43;100.00;103589.06;5052760;28;20051;-77
2022/01/12 09:33:23;;;;;;;7.18;3.83;;;;;;;-0.36;100.00;103595.09;5019829;28;20041;-77
2022/01/12 09:35:50;;;;;;;10.60;3.13;;;;;;;-0.33;100.00;103595.88;5015697;28;20064;-77
2022/01/12 09:38:19;;;;;;;6.45;2.72;;;;;;;-0.16;100.00;103606.09;5029042;28;20067;-77
2022/01/12 09:40:45;;;;;;;14.48;3.22;;;;;;;0.14;100.00;103604.44;5022465;28;20064;-77
2022/01/12 09:43:11;;;;;;;12.80;3.10;;;;;;;0.24;100.00;103601.56;5028455;28;20139;-76
2022/01/12 09:45:39;;;;;;;8.45;2.70;;;;;;;0.28;100.00;103608.53;5031207;28;20178;-77
2022/01/12 09:48:09;;;;;;;6.20;2.92;;;;;;;0.38;100.00;103600.31;5015642;28;20037;-77
2022/01/12 09:50:35;;;;;;;12.32;3.78;;;;;;;0.78;100.00;103601.88;5035322;28;20033;-77
2022/01/12 09:53:03;;;;;;;6.53;3.33;;;;;;;0.98;100.00;103569.56;5040142;28;20042;-77
2022/01/12 09:55:29;;;;;;;9.63;3.70;;;;;;;1.63;100.00;103608.22;5043328;28;20032;-77
2022/01/12 09:57:56;;;;;;;16.42;3.90;;;;;;;1.63;100.00;103610.88;5015589;28;20503;-78
2022/01/12 10:00:24;;;;;;;7.32;3.28;;;;;;;1.72;100.00;103615.91;5051399;28;20033;-79
2022/01/12 10:02:50;;;;;;;7.70;2.92;;;;;;;1.92;100.00;103619.72;5034365;28;20107;-79
2022/01/12 10:05:16;;;;;;;20.08;5.60;;;;;;;1.98;100.00;103622.16;5057825;28;20123;-78
2022/01/12 10:07:42;;;;;;;23.75;6.95;;;;;;;2.04;100.00;103607.81;5048572;28;20032;-78
2022/01/12 10:10:11;;;;;;;24.60;7.38;;;;;;;2.08;100.00;103610.31;5042825;28;20367;-80
2022/01/12 10:12:37;;;;;;;14.43;4.68;;;;;;;2.41;100.00;103613.66;5024404;28;20047;-78
2022/01/12 10:15:13;;;;;;;16.77;6.13;;;;;;;3.00;100.00;103619.53;5025370;28;20119;-77
2022/01/12 10:17:46;;;;;;;19.63;5.70;;;;;;;3.62;97.87;103604.78;5033386;28;20593;-79
2022/01/12 10:20:19;;;;;;;11.23;4.45;;;;;;;4.73;92.77;103617.00;5055487;28;20486;-78
2022/01/12 10:23:05;;;;;;;10.07;4.13;;;;;;;5.77;88.71;103613.97;5043154;28;20058;-78
2022/01/12 10:25:31;;;;;;;9.18;4.07;;;;;;;6.59;85.30;103617.91;5034367;28;20028;-78
2022/01/12 10:27:58;;;;;;;9.38;4.10;;;;;;;7.27;82.82;103611.59;5042585;28;20494;-78
2022/01/12 10:30:29;;;;;;;11.30;3.55;;;;;;;7.74;81.10;103608.09;5051628;28;20036;-79
2022/01/12 10:32:59;;;;;;;10.80;4.40;;;;;;;7.86;81.31;103609.22;5021153;28;20132;-77
2022/01/12 10:35:33;;;;;;;8.27;3.58;;;;;;;8.43;81.06;103601.41;5052878;28;20167;-79
2022/01/12 10:38:16;;;;;;;9.00;4.25;;;;;;;9.20;78.46;103605.56;5036007;28;20098;-78
2022/01/12 10:40:47;;;;;;;9.15;3.83;;;;;;;9.78;77.35;103613.53;5048457;28;20075;-77
2022/01/12 10:43:40;;;;;;;9.57;4.10;;;;;;;9.94;79.26;103621.44;5049017;28;20025;-78
2022/01/12 10:46:09;;;;;;;7.78;3.88;;;;;;;10.24;78.37;103613.16;5057658;28;20037;-78
2022/01/12 10:48:47;;;;;;;6.10;3.47;;;;;;;10.94;77.33;103613.69;5022456;28;20076;-78
2022/01/12 10:51:19;;;;;;;11.80;4.40;;;;;;;11.57;76.21;103616.41;5024397;28;20140;-78
2022/01/12 10:53:46;;;;;;;8.80;3.85;;;;;;;11.52;76.98;103614.03;5047044;28;20485;-77
2022/01/12 10:56:17;;;;;;;11.13;3.63;;;;;;;11.31;77.49;103597.59;5021696;28;20132;-78
2022/01/12 10:58:45;;;;;;;13.75;4.18;;;;;;;11.11;77.40;103603.56;5051730;28;20033;-79
2022/01/12 11:01:12;;;;;;;7.80;3.35;;;;;;;10.47;80.09;103612.47;5034325;28;20036;-78
2022/01/12 11:03:38;;;;;;;8.43;3.05;;;;;;;10.53;81.56;103622.84;5049362;28;20107;-79
2022/01/12 11:06:05;;;;;;;8.95;3.38;;;;;;;11.01;78.79;103592.59;5039415;28;20120;-77
2022/01/12 11:08:31;;;;;;;9.25;4.30;;;;;;;11.20;78.32;103616.38;5020970;28;20406;-78
2022/01/12 11:10:58;;;;;;;6.93;3.78;;;;;;;10.69;79.72;103617.25;5058993;28;20032;-78
2022/01/12 11:13:25;;;;;;;11.52;4.60;;;;;;;10.24;82.87;103624.78;5032215;28;20044;-78
2022/01/12 11:15:52;;;;;;;8.50;3.92;;;;;;;10.59;81.53;103618.88;5035001;28;20055;-78
2022/01/12 11:18:21;;;;;;;15.82;5.00;;;;;;;10.99;81.82;103619.63;5051184;28;20383;-80
2022/01/12 11:20:47;;;;;;;13.77;4.32;;;;;;;11.21;80.81;103618.09;5058986;28;20038;-78
2022/01/12 11:23:15;;;;;;;10.48;4.30;;;;;;;11.30;79.88;103617.44;5041012;28;20103;-79
2022/01/12 11:25:47;;;;;;;12.85;3.95;;;;;;;10.75;81.75;103624.03;5025843;28;20041;-79
2022/01/12 11:28:36;;;;;;;9.55;5.07;;;;;;;10.66;81.86;103625.53;5039757;28;20497;-78
2022/01/12 11:31:04;;;;;;;15.00;4.28;;;;;;;10.32;83.71;103616.25;5053827;28;20459;-78
2022/01/12 11:33:29;;;;;;;16.02;4.20;;;;;;;9.26;86.54;103590.91;5038999;28;20110;-79
2022/01/12 11:35:56;;;;;;;11.82;4.88;;;;;;;8.84;89.14;103586.41;5048504;28;20064;-78
2022/01/12 11:38:30;;;;;;;9.13;3.65;;;;;;;9.39;86.79;103594.56;5039152;28;20163;-79
2022/01/12 11:41:09;;;;;;;10.60;3.78;;;;;;;9.85;84.08;103606.81;5058289;28;20048;-79
2022/01/12 11:43:42;;;;;;;11.43;4.00;;;;;;;10.27;83.58;103608.47;5039016;28;20029;-78
2022/01/12 11:46:11;;;;;;;15.73;4.53;;;;;;;10.94;80.79;103608.31;5054853;28;20044;-79
2022/01/12 11:48:44;;;;;;;123.45;16.63;;;;;;;11.30;79.66;103614.75;5025675;28;20125;-79
2022/01/12 11:51:10;;;;;;;67.63;9.18;;;;;;;10.76;83.02;103599.69;5044903;28;20505;-78
2022/01/12 11:53:54;;;;;;;34.22;6.57;;;;;;;9.82;87.74;103612.38;5023250;28;20045;-78
2022/01/12 11:56:23;;;;;;;12.30;4.63;;;;;;;9.61;88.60;103614.66;5049378;28;20479;-78
2022/01/12 11:58:59;;;;;;;14.07;4.18;;;;;;;10.25;86.84;103607.69;5020707;28;20047;-78
2022/01/12 12:01:48;;;;;;;5.30;2.10;;;;;;;10.17;85.74;103596.59;5053713;28;20033;-78
2022/01/12 12:04:26;;;;;;;12.68;4.00;;;;;;;9.91;88.25;103604.56;5056314;28;20048;-78
2022/01/12 12:07:05;;;;;;;21.00;4.68;;;;;;;9.38;90.16;103600.88;5031050;28;20110;-78
2022/01/12 12:09:36;;;;;;;15.10;4.78;;;;;;;9.02;91.43;103596.88;5039494;28;20033;-79
2022/01/12 12:12:09;;;;;;;21.13;5.55;;;;;;;8.38;95.52;103593.59;5056597;28;20064;-79
2022/01/12 12:14:35;;;;;;;24.77;12.27;;;;;;;9.34;91.44;103580.56;5055873;28;20029;-78
2022/01/12 12:17:01;;;;;;;20.48;11.77;;;;;;;8.74;93.87;103594.19;5049386;28;20044;-79
2022/01/12 12:19:27;;;;;;;11.13;5.88;;;;;;;7.87;97.50;103565.38;5058649;28;20444;-78
2022/01/12 12:21:53;;;;;;;15.43;3.22;;;;;;;8.17;97.95;103586.81;5043068;28;20040;-78
2022/01/12 12:24:18;;;;;;;10.90;4.43;;;;;;;9.36;93.06;103583.13;5043279;28;20794;-78
2022/01/12 12:26:52;;;;;;;13.52;3.42;;;;;;;10.46;88.93;103583.00;5029385;28;20086;-79
2022/01/12 12:29:27;;;;;;;9.93;2.85;;;;;;;11.37;85.64;103572.03;5046091;28;20040;-78
2022/01/12 12:31:54;;;;;;;20.23;4.97;;;;;;;12.79;81.65;103576.53;5054501;28;20037;-78
2022/01/12 12:34:25;;;;;;;12.25;3.67;;;;;;;13.93;77.17;103581.69;5041558;28;20025;-77
2022/01/12 12:37:00;;;;;;;11.45;6.65;;;;;;;13.51;78.62;103559.94;5017996;28;20044;-78
2022/01/12 12:39:30;;;;;;;35.83;13.35;;;;;;;13.30;79.31;103577.91;5058239;28;20490;-79
2022/01/12 12:41:56;;;;;;;14.13;5.18;;;;;;;13.82;78.12;103565.50;5055770;28;20040;-78
2022/01/12 12:44:24;;;;;;;24.95;9.65;;;;;;;14.44;76.17;103569.22;5055929;28;20036;-78
2022/01/12 12:46:51;;;;;;;24.15;8.15;;;;;;;15.37;74.39;103579.09;5043267;28;20082;-78